createdAt,value
2023-09-21T00:01:13.630Z,70.80
2023-09-21T00:03:41.864Z,71.30
2023-09-21T00:06:09.711Z,71.90
2023-09-21T00:08:37.781Z,72.60
2023-09-21T00:11:08.608Z,72.10
2023-09-21T00:13:40.381Z,72.30
2023-09-21T00:16:12.900Z,72.60
2023-09-21T00:18:44.578Z,72.40
2023-09-21T00:21:13.901Z,72.50
2023-09-21T00:23:42.485Z,72.40
2023-09-21T00:26:11.193Z,73.00
2023-09-21T00:28:40.748Z,73.20
2023-09-21T00:31:08.070Z,73.40
2023-09-21T00:33:35.897Z,73.80
2023-09-21T00:36:06.797Z,74.30
2023-09-21T00:38:34.988Z,74.20
2023-09-21T00:41:05.488Z,74.30
2023-09-21T00:43:33.909Z,74.60
2023-09-21T00:46:04.766Z,74.60
2023-09-21T00:48:37.568Z,74.30
2023-09-21T00:51:08.826Z,73.20
2023-09-21T00:53:37.611Z,73.10
2023-09-21T00:56:13.046Z,73.10
2023-09-21T00:58:47.273Z,73.20
2023-09-21T01:01:25.543Z,73.90
2023-09-21T01:03:56.961Z,74.30
2023-09-21T01:06:25.001Z,74.50
2023-09-21T01:08:53.180Z,74.50
2023-09-21T01:11:21.908Z,75.00
2023-09-21T01:13:49.738Z,74.90
2023-09-21T01:16:18.404Z,74.70
2023-09-21T01:18:48.593Z,75.10
2023-09-21T01:21:18.612Z,75.20
2023-09-21T01:23:47.818Z,75.70
2023-09-21T01:26:16.214Z,75.70
2023-09-21T01:28:46.378Z,75.70
2023-09-21T01:31:14.486Z,75.00
2023-09-21T01:33:45.434Z,73.60
2023-09-21T01:36:13.905Z,73.40
2023-09-21T01:38:47.266Z,74.10
2023-09-21T01:41:17.012Z,75.10
2023-09-21T01:43:45.468Z,75.40
2023-09-21T01:46:22.902Z,75.80
2023-09-21T01:48:53.538Z,75.80
2023-09-21T01:51:22.042Z,75.50
2023-09-21T01:53:49.737Z,75.70
2023-09-21T01:56:17.679Z,75.60
2023-09-21T01:58:45.754Z,75.60
2023-09-21T02:01:18.141Z,75.40
2023-09-21T02:03:46.056Z,75.50
2023-09-21T02:06:14.168Z,75.40
2023-09-21T02:08:41.864Z,75.70
2023-09-21T02:11:09.500Z,76.00
2023-09-21T02:13:36.836Z,76.70
2023-09-21T02:16:04.427Z,76.90
2023-09-21T02:18:32.305Z,76.80
2023-09-21T02:21:02.245Z,76.80
2023-09-21T02:23:30.587Z,77.20
2023-09-21T02:25:58.140Z,77.20
2023-09-21T02:28:25.541Z,77.10
2023-09-21T02:30:52.981Z,77.00
2023-09-21T02:33:23.726Z,77.00
2023-09-21T02:35:51.806Z,77.40
2023-09-21T02:38:21.595Z,77.40
2023-09-21T02:40:49.506Z,77.40
2023-09-21T02:43:18.111Z,77.60
2023-09-21T02:45:46.533Z,77.70
2023-09-21T02:48:17.149Z,77.40
2023-09-21T02:50:51.528Z,76.70
2023-09-21T02:53:21.520Z,76.30
2023-09-21T02:55:51.761Z,76.00
2023-09-21T02:58:21.061Z,76.30
2023-09-21T03:00:51.449Z,76.60
2023-09-21T03:03:23.564Z,76.80
2023-09-21T03:05:53.504Z,76.90
2023-09-21T03:08:23.102Z,76.80
2023-09-21T03:10:55.016Z,77.00
2023-09-21T03:13:22.955Z,77.70
2023-09-21T03:16:02.344Z,77.70
2023-09-21T03:18:31.403Z,77.80
2023-09-21T03:20:58.834Z,78.40
2023-09-21T03:23:28.864Z,79.00
2023-09-21T03:25:56.180Z,79.50
2023-09-21T03:28:27.235Z,79.50
2023-09-21T03:30:58.189Z,79.30
2023-09-21T03:33:26.015Z,78.60
2023-09-21T03:35:53.693Z,77.40
2023-09-21T03:38:25.173Z,77.70
2023-09-21T03:40:57.781Z,78.20
2023-09-21T03:43:25.156Z,78.90
2023-09-21T03:45:52.702Z,79.30
2023-09-21T03:48:20.121Z,79.50
2023-09-21T03:50:50.565Z,79.80
2023-09-21T03:53:18.096Z,79.90
2023-09-21T03:55:47.315Z,79.40
2023-09-21T03:58:15.872Z,79.40
2023-09-21T04:00:43.327Z,79.40
2023-09-21T04:03:12.407Z,79.80
2023-09-21T04:05:50.194Z,80.00
2023-09-21T04:08:17.495Z,80.70
2023-09-21T04:10:44.782Z,80.70
2023-09-21T04:13:12.203Z,80.60
2023-09-21T04:15:39.556Z,79.50
2023-09-21T04:18:10.410Z,78.90
2023-09-21T04:20:41.267Z,79.30
2023-09-21T04:23:08.971Z,80.30
2023-09-21T04:25:37.838Z,80.70
2023-09-21T04:28:06.915Z,81.10
2023-09-21T04:30:36.034Z,81.30
2023-09-21T04:33:04.016Z,81.20
2023-09-21T04:35:31.812Z,80.70
2023-09-21T04:37:59.944Z,80.90
2023-09-21T04:40:28.707Z,81.70
2023-09-21T04:42:58.193Z,82.10
2023-09-21T04:45:28.145Z,82.30
2023-09-21T04:48:02.634Z,82.30
2023-09-21T04:50:34.401Z,81.80
2023-09-21T04:53:02.287Z,81.70
2023-09-21T04:55:29.921Z,81.90
2023-09-21T04:57:57.319Z,82.20
2023-09-21T05:00:25.025Z,82.60
2023-09-21T05:02:52.626Z,83.00
2023-09-21T05:05:22.980Z,82.80
2023-09-21T05:07:50.462Z,82.60
2023-09-21T05:10:17.978Z,82.30
2023-09-21T05:12:47.837Z,82.20
2023-09-21T05:15:16.973Z,81.80
2023-09-21T05:17:44.584Z,82.80
2023-09-21T05:20:12.342Z,83.10
2023-09-21T05:22:43.761Z,82.80
2023-09-21T05:25:11.745Z,82.80
2023-09-21T05:27:40.071Z,82.80
2023-09-21T05:30:10.844Z,82.40
2023-09-21T05:32:39.866Z,82.50
2023-09-21T05:35:08.384Z,82.50
2023-09-21T05:37:37.383Z,83.20
2023-09-21T05:40:07.249Z,83.10
2023-09-21T05:42:35.327Z,83.40
2023-09-21T05:45:03.489Z,83.30
2023-09-21T05:47:31.014Z,83.00
2023-09-21T05:49:58.461Z,83.10
2023-09-21T05:52:26.818Z,82.70
2023-09-21T05:54:54.306Z,82.70
2023-09-21T05:57:22.774Z,82.60
2023-09-21T05:59:51.356Z,82.60
2023-09-21T06:02:18.894Z,82.90
2023-09-21T06:04:47.940Z,82.50
2023-09-21T06:07:18.191Z,82.50
2023-09-21T06:09:45.544Z,82.40
2023-09-21T06:12:12.988Z,82.70
2023-09-21T06:14:40.360Z,82.40
2023-09-21T06:17:11.356Z,81.80
2023-09-21T06:19:40.854Z,81.30
2023-09-21T06:22:08.198Z,80.70
2023-09-21T06:24:35.498Z,80.50
2023-09-21T06:27:02.902Z,80.70
2023-09-21T06:29:30.251Z,80.70
2023-09-21T06:32:12.854Z,80.60
2023-09-21T06:34:44.850Z,80.40
2023-09-21T06:37:13.612Z,80.40
2023-09-21T06:39:41.699Z,80.40
2023-09-21T06:42:09.291Z,80.40
2023-09-21T06:44:38.089Z,80.30
2023-09-21T06:47:05.672Z,80.20
2023-09-21T06:49:35.623Z,80.50
2023-09-21T06:52:04.786Z,80.80
2023-09-21T06:54:32.790Z,81.00
2023-09-21T06:57:05.377Z,80.90
2023-09-21T06:59:39.438Z,80.70
2023-09-21T07:02:07.226Z,80.10
2023-09-21T07:04:36.003Z,79.80
2023-09-21T07:07:07.889Z,79.10
2023-09-21T07:09:38.907Z,78.90
2023-09-21T07:12:07.289Z,78.40
2023-09-21T07:14:37.347Z,78.00
2023-09-21T07:17:06.619Z,77.60
2023-09-21T07:19:36.254Z,76.90
2023-09-21T07:22:04.729Z,77.40
2023-09-21T07:24:32.676Z,75.70
2023-09-21T07:27:02.366Z,75.70
2023-09-21T07:29:32.008Z,75.50
2023-09-21T07:32:00.616Z,75.40
2023-09-21T07:34:30.850Z,74.40
2023-09-21T07:36:58.756Z,74.40
2023-09-21T07:39:26.172Z,74.40
2023-09-21T07:41:55.020Z,73.90
2023-09-21T07:44:24.164Z,73.50
2023-09-21T07:46:53.805Z,73.70
2023-09-21T07:49:21.433Z,71.80
2023-09-21T07:51:48.793Z,72.30
2023-09-21T07:54:16.400Z,72.60
2023-09-21T07:56:43.754Z,71.80
2023-09-21T07:59:11.877Z,71.90
2023-09-21T08:01:39.666Z,70.80
2023-09-21T08:04:08.419Z,70.10
2023-09-21T08:06:35.934Z,69.90
2023-09-21T08:09:04.420Z,68.60
2023-09-21T08:11:33.238Z,69.20
2023-09-21T08:14:00.859Z,68.10
2023-09-21T08:16:30.642Z,68.40
2023-09-21T08:18:59.530Z,66.70
2023-09-21T08:21:26.907Z,65.80
2023-09-21T08:23:54.614Z,66.30
2023-09-21T08:26:21.952Z,66.80
2023-09-21T08:28:49.248Z,67.30
2023-09-21T08:31:16.616Z,67.50
2023-09-21T08:33:44.077Z,68.60
2023-09-21T08:36:11.488Z,67.90
2023-09-21T08:38:39.582Z,67.20
2023-09-21T08:41:07.562Z,65.70
2023-09-21T08:43:36.263Z,64.10
2023-09-21T08:46:04.615Z,63.90
2023-09-21T08:48:33.543Z,64.20
2023-09-21T08:51:02.637Z,66.00
2023-09-21T08:53:30.202Z,66.20
2023-09-21T08:55:59.906Z,65.90
2023-09-21T08:58:34.412Z,65.90
2023-09-21T09:01:02.816Z,66.20
2023-09-21T09:03:30.942Z,67.00
2023-09-21T09:06:00.017Z,66.30
2023-09-21T09:08:29.357Z,66.50
2023-09-21T09:10:57.187Z,65.00
2023-09-21T09:13:34.837Z,62.60
2023-09-21T09:16:02.367Z,62.20
2023-09-21T09:18:29.917Z,62.30
2023-09-21T09:20:57.424Z,60.70
2023-09-21T09:23:26.014Z,57.70
2023-09-21T09:25:55.859Z,57.00
2023-09-21T09:28:23.385Z,56.50
2023-09-21T09:30:53.253Z,57.20
2023-09-21T09:33:26.883Z,56.80
2023-09-21T09:35:55.352Z,56.90
2023-09-21T09:38:23.176Z,58.40
2023-09-21T09:40:52.581Z,56.70
2023-09-21T09:43:21.943Z,57.90
2023-09-21T09:45:51.713Z,57.10
2023-09-21T09:48:24.255Z,54.80
2023-09-21T09:50:59.150Z,53.50
2023-09-21T09:53:27.442Z,56.10
2023-09-21T09:55:57.184Z,55.10
2023-09-21T09:58:28.006Z,52.70
2023-09-21T10:00:56.728Z,52.90
2023-09-21T10:03:24.789Z,52.20
2023-09-21T10:05:53.915Z,52.50
2023-09-21T10:08:23.023Z,51.10
2023-09-21T10:10:53.954Z,51.50
2023-09-21T10:13:27.189Z,50.70
2023-09-21T10:16:05.965Z,46.30
2023-09-21T10:18:44.835Z,48.70
2023-09-21T10:21:35.276Z,50.20
2023-09-21T10:24:05.223Z,45.20
2023-09-21T10:26:40.002Z,46.20
2023-09-21T10:29:08.406Z,46.10
2023-09-21T10:31:39.354Z,44.80
2023-09-21T10:34:11.367Z,41.50
2023-09-21T10:36:43.658Z,41.80
2023-09-21T10:39:11.549Z,41.80
2023-09-21T10:41:44.457Z,41.70
2023-09-21T10:44:12.349Z,39.70
2023-09-21T10:46:42.520Z,40.70
2023-09-21T10:49:17.369Z,41.60
2023-09-21T10:51:47.522Z,42.20
2023-09-21T10:54:15.043Z,42.60
2023-09-21T10:56:45.274Z,40.50
2023-09-21T10:59:13.168Z,41.90
2023-09-21T11:01:40.852Z,42.20
2023-09-21T11:04:08.774Z,43.30
2023-09-21T11:06:38.275Z,44.00
2023-09-21T11:09:09.282Z,43.00
2023-09-21T11:11:36.868Z,41.20
2023-09-21T11:14:06.481Z,42.80
2023-09-21T11:16:34.061Z,41.70
2023-09-21T11:19:02.369Z,39.10
2023-09-21T11:21:30.114Z,39.10
2023-09-21T11:23:57.592Z,40.30
2023-09-21T11:26:26.500Z,42.00
2023-09-21T11:29:00.178Z,41.90
2023-09-21T11:31:30.005Z,41.80
2023-09-21T11:34:06.491Z,41.90
2023-09-21T11:36:34.262Z,42.10
2023-09-21T11:39:02.213Z,42.80
2023-09-21T11:41:29.879Z,42.60
2023-09-21T11:43:57.301Z,42.50
2023-09-21T11:46:25.757Z,40.30
2023-09-21T11:48:54.735Z,40.10
2023-09-21T11:51:27.344Z,40.20
2023-09-21T11:53:56.306Z,41.50
2023-09-21T11:56:23.717Z,40.80
2023-09-21T11:58:51.206Z,38.70
2023-09-21T12:01:21.698Z,36.00
2023-09-21T12:03:53.206Z,36.00
2023-09-21T12:06:20.717Z,36.50
2023-09-21T12:08:49.134Z,35.80
2023-09-21T12:11:16.458Z,36.50
2023-09-21T12:16:11.199Z,38.40
2023-09-21T12:18:38.752Z,39.00
2023-09-21T12:21:06.621Z,38.40
2023-09-21T12:23:36.144Z,39.10
2023-09-21T12:26:03.673Z,37.70
2023-09-21T12:28:31.075Z,38.80
2023-09-21T12:30:58.587Z,39.70
2023-09-21T12:33:41.949Z,37.90
2023-09-21T12:36:14.342Z,39.50
2023-09-21T12:38:44.642Z,39.20
2023-09-21T12:41:12.143Z,37.20
2023-09-21T12:43:39.554Z,37.20
2023-09-21T12:46:09.501Z,39.30
2023-09-21T12:48:37.598Z,37.80
2023-09-21T12:51:05.562Z,38.60
2023-09-21T12:53:32.957Z,37.50
2023-09-21T12:56:00.348Z,36.70
2023-09-21T12:58:30.813Z,36.90
2023-09-21T13:00:58.325Z,37.40
2023-09-21T13:03:25.902Z,38.80
2023-09-21T13:05:53.340Z,38.60
2023-09-21T13:08:21.217Z,39.50
2023-09-21T13:10:48.588Z,39.60
2023-09-21T13:13:16.464Z,39.10
2023-09-21T13:15:43.895Z,37.80
2023-09-21T13:18:12.126Z,38.20
2023-09-21T13:20:40.065Z,38.40
2023-09-21T13:23:08.066Z,39.00
2023-09-21T13:25:38.577Z,37.50
2023-09-21T13:28:06.042Z,37.90
2023-09-21T13:30:34.039Z,37.60
2023-09-21T13:33:02.651Z,38.80
2023-09-21T13:35:31.693Z,38.40
2023-09-21T13:37:59.441Z,38.80
2023-09-21T13:40:27.159Z,39.20
2023-09-21T13:42:54.616Z,39.80
2023-09-21T13:45:22.050Z,40.70
2023-09-21T13:47:50.238Z,40.70
2023-09-21T13:50:19.204Z,39.40
2023-09-21T13:52:46.527Z,40.20
2023-09-21T13:55:18.332Z,40.00
2023-09-21T13:57:47.917Z,40.50
2023-09-21T14:00:15.879Z,40.20
2023-09-21T14:02:50.013Z,40.90
2023-09-21T14:05:23.252Z,40.20
2023-09-21T14:07:54.094Z,40.60
2023-09-21T14:10:21.679Z,41.20
2023-09-21T14:12:51.296Z,41.10
2023-09-21T14:15:19.021Z,41.80
2023-09-21T14:17:46.577Z,41.30
2023-09-21T14:20:14.990Z,41.40
2023-09-21T14:22:42.329Z,41.70
2023-09-21T14:25:10.028Z,41.80
2023-09-21T14:27:38.060Z,41.50
2023-09-21T14:30:06.291Z,42.00
2023-09-21T14:32:34.081Z,43.00
2023-09-21T14:35:04.985Z,42.60
2023-09-21T14:37:32.486Z,42.70
2023-09-21T14:40:01.382Z,43.50
2023-09-21T14:42:29.620Z,43.50
2023-09-21T14:44:57.463Z,42.50
2023-09-21T14:47:28.036Z,42.40
2023-09-21T14:49:56.250Z,41.90
2023-09-21T14:52:25.465Z,41.50
2023-09-21T14:54:54.105Z,41.20
2023-09-21T14:57:22.462Z,41.00
2023-09-21T14:59:50.416Z,39.70
2023-09-21T15:02:18.519Z,37.00
2023-09-21T15:04:45.953Z,36.40
2023-09-21T15:07:14.056Z,37.40
2023-09-21T15:09:41.739Z,37.70
2023-09-21T15:12:09.462Z,37.90
2023-09-21T15:14:36.980Z,38.80
2023-09-21T15:17:05.338Z,39.10
2023-09-21T15:19:33.452Z,41.20
2023-09-21T15:22:01.123Z,42.80
2023-09-21T15:24:30.272Z,44.20
2023-09-21T15:26:59.769Z,44.30
2023-09-21T15:29:29.623Z,42.60
2023-09-21T15:31:57.491Z,45.40
2023-09-21T15:34:24.933Z,45.70
2023-09-21T15:36:52.985Z,45.80
2023-09-21T15:39:20.758Z,46.20
2023-09-21T15:41:49.211Z,46.70
2023-09-21T15:44:16.947Z,47.80
2023-09-21T15:46:44.394Z,48.40
2023-09-21T15:49:12.289Z,48.50
2023-09-21T15:51:40.761Z,48.30
2023-09-21T15:54:08.522Z,50.00
2023-09-21T15:56:35.951Z,51.00
2023-09-21T15:59:03.661Z,49.50
2023-09-21T16:01:31.522Z,51.60
2023-09-21T16:04:05.704Z,52.70
2023-09-21T16:06:34.451Z,52.80
2023-09-21T16:09:05.305Z,55.00
2023-09-21T16:11:37.039Z,54.00
2023-09-21T16:14:07.556Z,52.30
2023-09-21T16:16:35.360Z,52.00
2023-09-21T16:19:03.045Z,53.20
2023-09-21T16:21:33.672Z,53.10
2023-09-21T16:24:03.487Z,52.40
2023-09-21T16:26:31.117Z,53.00
2023-09-21T16:28:59.088Z,54.30
2023-09-21T16:31:27.420Z,54.80
2023-09-21T16:33:55.483Z,56.10
2023-09-21T16:36:23.519Z,56.60
2023-09-21T16:38:51.441Z,55.80
2023-09-21T16:41:19.501Z,56.50
2023-09-21T16:43:47.655Z,57.20
2023-09-21T16:46:39.601Z,58.20
2023-09-21T16:49:03.871Z,57.20
2023-09-21T16:51:31.601Z,56.30
2023-09-21T16:54:02.224Z,55.90
2023-09-21T16:56:31.980Z,55.70
2023-09-21T16:59:00.585Z,57.20
2023-09-21T17:01:28.470Z,58.40
2023-09-21T17:03:56.694Z,57.70
2023-09-21T17:06:24.417Z,56.60
2023-09-21T17:08:51.789Z,56.80
2023-09-21T17:11:19.541Z,56.30
2023-09-21T17:13:47.736Z,55.40
2023-09-21T17:16:15.549Z,56.20
2023-09-21T17:18:43.255Z,56.80
2023-09-21T17:21:10.910Z,56.30
2023-09-21T17:23:38.819Z,57.50
2023-09-21T17:26:06.137Z,58.20
2023-09-21T17:28:34.114Z,58.00
2023-09-21T17:31:05.127Z,57.80
2023-09-21T17:33:34.334Z,59.20
2023-09-21T17:36:02.731Z,59.80
2023-09-21T17:38:31.142Z,58.70
2023-09-21T17:40:59.070Z,59.20
2023-09-21T17:43:27.020Z,60.30
2023-09-21T17:45:54.533Z,59.60
2023-09-21T17:48:29.414Z,59.70
2023-09-21T17:53:29.637Z,59.30
2023-09-21T17:55:57.810Z,59.20
2023-09-21T17:58:25.876Z,59.90
2023-09-21T18:00:53.840Z,60.00
2023-09-21T18:03:22.887Z,60.00
2023-09-21T18:05:50.597Z,60.00
2023-09-21T18:08:18.472Z,58.80
2023-09-21T18:10:46.046Z,60.10
2023-09-21T18:13:14.037Z,59.80
2023-09-21T18:15:41.424Z,58.90
2023-09-21T18:18:09.121Z,59.30
2023-09-21T18:20:36.578Z,59.00
2023-09-21T18:23:05.075Z,60.00
2023-09-21T18:25:33.097Z,60.30
2023-09-21T18:28:00.545Z,59.50
2023-09-21T18:30:28.584Z,59.40
2023-09-21T18:32:56.150Z,58.40
2023-09-21T18:35:23.633Z,58.30
2023-09-21T18:37:51.204Z,59.00
2023-09-21T18:40:18.680Z,59.50
2023-09-21T18:42:46.200Z,59.80
2023-09-21T18:45:13.725Z,60.00
2023-09-21T18:47:41.114Z,60.30
2023-09-21T18:50:09.045Z,60.50
2023-09-21T18:52:37.360Z,60.60
2023-09-21T18:55:06.654Z,60.70
2023-09-21T18:57:35.137Z,61.40
2023-09-21T19:00:02.535Z,61.40
2023-09-21T19:02:29.998Z,61.50
2023-09-21T19:04:58.132Z,61.90
2023-09-21T19:07:25.443Z,61.80
2023-09-21T19:09:54.582Z,62.00
2023-09-21T19:12:21.975Z,62.00
2023-09-21T19:14:49.370Z,62.50
2023-09-21T19:17:17.367Z,62.60
2023-09-21T19:19:44.855Z,63.30
2023-09-21T19:22:12.136Z,63.40
2023-09-21T19:24:39.549Z,63.10
2023-09-21T19:27:07.245Z,63.70
2023-09-21T19:29:35.856Z,63.80
2023-09-21T19:32:03.254Z,64.00
2023-09-21T19:34:30.768Z,64.00
2023-09-21T19:36:58.288Z,64.50
2023-09-21T19:39:26.283Z,64.40
2023-09-21T19:41:53.874Z,64.10
2023-09-21T19:44:21.244Z,64.20
2023-09-21T19:46:48.681Z,64.30
2023-09-21T19:49:16.036Z,64.90
2023-09-21T19:51:44.265Z,65.20
2023-09-21T19:54:11.637Z,65.10
2023-09-21T19:56:40.097Z,65.70
2023-09-21T19:59:07.454Z,65.80
2023-09-21T20:01:34.788Z,66.20
2023-09-21T20:04:03.536Z,66.10
2023-09-21T20:06:31.200Z,65.90
2023-09-21T20:08:58.582Z,66.30
2023-09-21T20:11:26.263Z,66.00
2023-09-21T20:13:55.685Z,65.90
2023-09-21T20:16:24.860Z,65.90
2023-09-21T20:18:52.217Z,66.30
2023-09-21T20:21:19.625Z,67.00
2023-09-21T20:23:46.979Z,67.60
2023-09-21T20:26:14.295Z,67.80
2023-09-21T20:28:41.591Z,67.80
2023-09-21T20:31:08.952Z,67.80
2023-09-21T20:33:36.472Z,67.50
2023-09-21T20:36:04.017Z,67.50
2023-09-21T20:38:31.268Z,67.50
2023-09-21T20:40:58.899Z,67.80
2023-09-21T20:43:26.245Z,67.50
2023-09-21T20:45:55.287Z,67.40
2023-09-21T20:48:22.765Z,67.50
2023-09-21T20:50:51.020Z,68.10
2023-09-21T20:53:18.629Z,68.40
2023-09-21T20:55:47.472Z,68.60
2023-09-21T20:58:14.731Z,68.50
2023-09-21T21:00:42.040Z,69.00
2023-09-21T21:03:10.830Z,68.90
2023-09-21T21:05:38.250Z,68.30
2023-09-21T21:08:05.835Z,68.30
2023-09-21T21:10:33.247Z,68.70
2023-09-21T21:13:00.555Z,69.10
2023-09-21T21:15:28.503Z,69.90
2023-09-21T21:17:55.994Z,70.00
2023-09-21T21:20:23.415Z,70.00
2023-09-21T21:22:50.984Z,69.80
2023-09-21T21:25:18.393Z,69.90
2023-09-21T21:27:46.129Z,70.10
2023-09-21T21:30:13.714Z,70.30
2023-09-21T21:32:41.158Z,70.30
2023-09-21T21:35:15.997Z,70.10
2023-09-21T21:37:44.682Z,70.00
2023-09-21T21:40:13.628Z,69.60
2023-09-21T21:42:41.681Z,69.80
2023-09-21T21:45:09.592Z,70.10
2023-09-21T21:47:37.038Z,69.60
2023-09-21T21:50:04.969Z,69.90
2023-09-21T21:52:32.779Z,70.50
2023-09-21T21:55:00.184Z,70.60
2023-09-21T21:57:28.352Z,70.60
2023-09-21T21:59:55.702Z,70.90
2023-09-21T22:02:23.091Z,71.30
2023-09-21T22:04:52.535Z,71.20
2023-09-21T22:07:22.057Z,71.40
2023-09-21T22:09:50.602Z,70.70
2023-09-21T22:12:19.509Z,71.40
2023-09-21T22:14:46.896Z,71.50
2023-09-21T22:17:14.333Z,71.70
2023-09-21T22:19:43.138Z,71.70
2023-09-21T22:22:10.483Z,71.90
2023-09-21T22:24:37.827Z,71.90
2023-09-21T22:27:05.126Z,71.70
2023-09-21T22:29:32.436Z,71.80
2023-09-21T22:31:59.729Z,71.80
2023-09-21T22:34:27.066Z,71.90
2023-09-21T22:36:54.592Z,72.50
2023-09-21T22:39:21.951Z,73.30
2023-09-21T22:41:49.290Z,73.20
2023-09-21T22:44:16.747Z,73.90
2023-09-21T22:46:47.099Z,74.00
2023-09-21T22:49:16.221Z,73.90
2023-09-21T22:51:43.600Z,73.30
2023-09-21T22:54:11.931Z,70.90
2023-09-21T22:56:39.189Z,68.80
2023-09-21T22:59:06.495Z,69.20
2023-09-21T23:01:35.942Z,70.70
2023-09-21T23:04:03.439Z,72.70
2023-09-21T23:06:30.900Z,74.10
2023-09-21T23:08:59.352Z,74.80
2023-09-21T23:11:27.308Z,75.20
2023-09-21T23:13:56.617Z,77.20
2023-09-21T23:16:25.363Z,79.90
2023-09-21T23:18:53.368Z,81.90
2023-09-21T23:21:21.698Z,83.20
2023-09-21T23:23:49.233Z,84.20
2023-09-21T23:26:19.659Z,85.60
2023-09-21T23:28:47.205Z,85.70
2023-09-21T23:31:15.022Z,86.10
2023-09-21T23:33:45.045Z,86.40
2023-09-21T23:36:14.904Z,86.60
2023-09-21T23:38:42.842Z,86.50
2023-09-21T23:41:10.641Z,87.20
2023-09-21T23:43:41.090Z,87.40
2023-09-21T23:46:12.046Z,87.50
2023-09-21T23:48:43.350Z,87.60
2023-09-21T23:51:11.970Z,87.90
2023-09-21T23:53:39.258Z,87.80
2023-09-21T23:56:08.229Z,87.90
2023-09-21T23:58:35.533Z,87.90
